createdAt,value
2023-04-25T00:01:15.900Z,98482.53
2023-04-25T00:02:48.152Z,98487.66
2023-04-25T00:04:23.293Z,98477.03
2023-04-25T00:05:57.824Z,98478.84
2023-04-25T00:07:32.238Z,98473.78
2023-04-25T00:09:08.463Z,98470.31
2023-04-25T00:10:41.872Z,98464.88
2023-04-25T00:12:15.079Z,98467.34
2023-04-25T00:13:50.906Z,98464.03
2023-04-25T00:15:26.383Z,98467.44
2023-04-25T00:17:00.302Z,98457.69
2023-04-25T00:18:34.329Z,98456.16
2023-04-25T00:20:10.688Z,98459.56
2023-04-25T00:21:46.468Z,98462.91
2023-04-25T00:23:19.853Z,98461.13
2023-04-25T00:24:54.434Z,98459.22
2023-04-25T00:26:27.801Z,98459.03
2023-04-25T00:28:00.955Z,98452.63
2023-04-25T00:29:35.695Z,98458.69
2023-04-25T00:31:09.582Z,98458.50
2023-04-25T00:32:43.017Z,98467.41
2023-04-25T00:34:16.158Z,98452.25
2023-04-25T00:35:49.608Z,98457.38
2023-04-25T00:37:23.200Z,98451.13
2023-04-25T00:38:56.887Z,98440.53
2023-04-25T00:40:30.576Z,98436.94
2023-04-25T00:42:05.130Z,98424.59
2023-04-25T00:43:38.575Z,98422.88
2023-04-25T00:45:16.005Z,98422.53
2023-04-25T00:46:49.941Z,98419.88
2023-04-25T00:48:24.822Z,98422.72
2023-04-25T00:49:57.981Z,98412.25
2023-04-25T00:51:31.779Z,98429.50
2023-04-25T00:53:04.498Z,98425.13
2023-04-25T00:54:37.925Z,98429.41
2023-04-25T00:56:11.206Z,98423.06
2023-04-25T00:57:45.000Z,98418.69
2023-04-25T00:59:19.214Z,98411.59
2023-04-25T01:00:54.133Z,98410.72
2023-04-25T01:02:29.524Z,98404.50
2023-04-25T01:04:04.023Z,98400.03
2023-04-25T01:05:36.242Z,98395.69
2023-04-25T01:07:09.493Z,98383.53
2023-04-25T01:08:42.650Z,98386.47
2023-04-25T01:10:16.716Z,98384.94
2023-04-25T01:11:50.430Z,98381.72
2023-04-25T01:13:23.640Z,98376.78
2023-04-25T01:14:57.611Z,98374.13
2023-04-25T01:16:31.257Z,98368.91
2023-04-25T01:18:05.501Z,98364.66
2023-04-25T01:19:38.984Z,98361.03
2023-04-25T01:21:14.826Z,98357.25
2023-04-25T01:22:48.676Z,98361.03
2023-04-25T01:24:21.811Z,98352.41
2023-04-25T01:25:55.783Z,98347.38
2023-04-25T01:27:29.515Z,98351.81
2023-04-25T01:29:03.878Z,98343.03
2023-04-25T01:30:37.691Z,98351.81
2023-04-25T01:32:12.259Z,98352.69
2023-04-25T01:33:46.486Z,98349.28
2023-04-25T01:35:19.945Z,98353.81
2023-04-25T01:36:55.304Z,98353.03
2023-04-25T01:38:29.335Z,98351.16
2023-04-25T01:40:02.797Z,98351.16
2023-04-25T01:41:35.724Z,98347.75
2023-04-25T01:43:11.974Z,98353.25
2023-04-25T01:44:45.373Z,98360.25
2023-04-25T01:46:19.171Z,98348.78
2023-04-25T01:47:52.616Z,98348.69
2023-04-25T01:49:25.957Z,98342.44
2023-04-25T01:50:59.410Z,98327.38
2023-04-25T01:52:34.049Z,98331.09
2023-04-25T01:54:08.418Z,98326.53
2023-04-25T01:55:41.597Z,98333.91
2023-04-25T01:57:18.099Z,98327.25
2023-04-25T01:58:51.881Z,98325.25
2023-04-25T02:00:28.085Z,98329.03
2023-04-25T02:02:04.637Z,98320.59
2023-04-25T02:03:39.611Z,98307.88
2023-04-25T02:05:17.454Z,98313.25
2023-04-25T02:06:51.216Z,98318.72
2023-04-25T02:08:27.040Z,98308.22
2023-04-25T02:10:02.289Z,98315.41
2023-04-25T02:11:39.622Z,98310.13
2023-04-25T02:13:36.081Z,98307.47
2023-04-25T02:15:18.524Z,98303.47
2023-04-25T02:16:58.449Z,98310.44
2023-04-25T02:18:32.348Z,98312.34
2023-04-25T02:20:07.362Z,98314.91
2023-04-25T02:21:40.639Z,98315.75
2023-04-25T02:23:12.929Z,98315.75
2023-04-25T02:24:49.017Z,98309.53
2023-04-25T02:26:22.309Z,98319.19
2023-04-25T02:27:55.782Z,98315.56
2023-04-25T02:29:28.059Z,98314.06
2023-04-25T02:31:01.424Z,98310.63
2023-04-25T02:32:35.383Z,98322.94
2023-04-25T02:34:09.772Z,98323.78
2023-04-25T02:35:44.697Z,98316.69
2023-04-25T02:37:23.762Z,98305.16
2023-04-25T02:38:57.128Z,98308.94
2023-04-25T02:40:30.917Z,98304.50
2023-04-25T02:42:04.250Z,98304.50
2023-04-25T02:43:37.408Z,98315.91
2023-04-25T02:45:11.767Z,98310.81
2023-04-25T02:46:44.155Z,98311.00
2023-04-25T02:48:17.615Z,98313.81
2023-04-25T02:49:51.004Z,98307.94
2023-04-25T02:51:24.625Z,98322.09
2023-04-25T02:52:57.864Z,98324.00
2023-04-25T02:54:36.201Z,98322.81
2023-04-25T02:56:11.712Z,98325.31
2023-04-25T02:57:45.121Z,98320.22
2023-04-25T02:59:21.268Z,98321.41
2023-04-25T03:00:54.527Z,98326.97
2023-04-25T03:02:27.796Z,98335.06
2023-04-25T03:04:01.360Z,98327.22
2023-04-25T03:05:33.647Z,98336.59
2023-04-25T03:07:07.143Z,98331.47
2023-04-25T03:08:39.218Z,98324.97
2023-04-25T03:10:12.873Z,98325.84
2023-04-25T03:11:48.646Z,98327.38
2023-04-25T03:13:21.941Z,98329.25
2023-04-25T03:14:55.006Z,98327.56
2023-04-25T03:16:27.700Z,98324.91
2023-04-25T03:18:00.988Z,98321.31
2023-04-25T03:19:33.478Z,98332.50
2023-04-25T03:21:06.938Z,98329.72
2023-04-25T03:22:40.603Z,98328.75
2023-04-25T03:24:14.604Z,98324.22
2023-04-25T03:25:48.100Z,98317.06
2023-04-25T03:27:22.650Z,98318.91
2023-04-25T03:28:56.081Z,98318.34
2023-04-25T03:30:29.328Z,98324.41
2023-04-25T03:32:02.967Z,98318.34
2023-04-25T03:33:36.187Z,98325.31
2023-04-25T03:35:10.050Z,98318.16
2023-04-25T03:36:43.272Z,98327.63
2023-04-25T03:38:17.729Z,98329.41
2023-04-25T03:39:52.018Z,98332.00
2023-04-25T03:41:24.729Z,98321.41
2023-04-25T03:43:08.349Z,98315.81
2023-04-25T03:44:42.550Z,98313.44
2023-04-25T03:46:16.059Z,98315.19
2023-04-25T03:47:49.778Z,98316.09
2023-04-25T03:49:23.152Z,98318.00
2023-04-25T03:51:05.968Z,98324.50
2023-04-25T03:52:41.653Z,98316.47
2023-04-25T03:54:15.501Z,98320.03
2023-04-25T03:56:01.495Z,98324.88
2023-04-25T03:57:38.774Z,98311.53
2023-04-25T03:59:13.274Z,98317.59
2023-04-25T04:00:46.820Z,98317.50
2023-04-25T04:02:20.599Z,98320.22
2023-04-25T04:03:54.608Z,98317.50
2023-04-25T04:05:28.472Z,98310.69
2023-04-25T04:07:03.554Z,98311.25
2023-04-25T04:08:40.812Z,98315.47
2023-04-25T04:10:15.876Z,98309.81
2023-04-25T04:11:49.035Z,98312.19
2023-04-25T04:13:22.703Z,98323.47
2023-04-25T04:14:57.285Z,98316.22
2023-04-25T04:16:32.522Z,98316.13
2023-04-25T04:18:07.363Z,98319.69
2023-04-25T04:19:41.180Z,98328.09
2023-04-25T04:21:21.326Z,98324.09
2023-04-25T04:22:54.745Z,98306.19
2023-04-25T04:24:28.733Z,98315.75
2023-04-25T04:26:08.228Z,98317.09
2023-04-25T04:28:14.388Z,98317.97
2023-04-25T04:29:59.272Z,98319.84
2023-04-25T04:31:43.013Z,98319.59
2023-04-25T04:33:20.030Z,98322.06
2023-04-25T04:34:57.046Z,98324.47
2023-04-25T04:36:32.003Z,98318.13
2023-04-25T04:38:05.874Z,98323.13
2023-04-25T04:39:42.007Z,98322.13
2023-04-25T04:41:31.300Z,98321.00
2023-04-25T04:43:34.758Z,98311.91
2023-04-25T04:45:37.834Z,98314.00
2023-04-25T04:47:15.254Z,98316.56
2023-04-25T04:49:08.822Z,98326.03
2023-04-25T04:50:53.554Z,98316.97
2023-04-25T04:52:53.057Z,98323.59
2023-04-25T04:54:49.565Z,98318.78
2023-04-25T04:56:45.742Z,98315.84
2023-04-25T04:58:30.650Z,98314.63
2023-04-25T05:00:33.127Z,98315.00
2023-04-25T05:02:27.393Z,98316.25
2023-04-25T05:04:32.945Z,98306.47
2023-04-25T05:06:46.883Z,98317.72
2023-04-25T05:08:54.267Z,98308.78
2023-04-25T05:10:28.055Z,98304.59
2023-04-25T05:12:10.776Z,98298.78
2023-04-25T05:14:02.719Z,98304.34
2023-04-25T05:15:48.105Z,98306.63
2023-04-25T05:17:21.241Z,98300.66
2023-04-25T05:19:21.971Z,98303.63
2023-04-25T05:21:28.468Z,98303.91
2023-04-25T05:23:13.276Z,98309.31
2023-04-25T05:24:55.761Z,98311.81
2023-04-25T05:27:04.924Z,98315.78
2023-04-25T05:28:52.090Z,98319.34
2023-04-25T05:30:43.275Z,98313.63
2023-04-25T05:32:29.277Z,98328.78
2023-04-25T05:34:03.089Z,98320.97
2023-04-25T05:35:48.830Z,98325.13
2023-04-25T05:37:22.046Z,98320.56
2023-04-25T05:39:21.701Z,98312.94
2023-04-25T05:41:21.514Z,98313.28
2023-04-25T05:43:13.410Z,98312.22
2023-04-25T05:45:09.858Z,98308.31
2023-04-25T05:47:05.716Z,98310.97
2023-04-25T05:49:06.207Z,98305.66
2023-04-25T05:51:04.399Z,98314.31
2023-04-25T05:52:53.758Z,98309.41
2023-04-25T05:54:42.725Z,98310.63
2023-04-25T05:56:16.050Z,98308.19
2023-04-25T05:57:51.344Z,98314.38
2023-04-25T05:59:25.030Z,98311.59
2023-04-25T06:00:59.225Z,98316.09
2023-04-25T06:02:32.909Z,98311.19
2023-04-25T06:04:06.722Z,98308.31
2023-04-25T06:05:40.461Z,98313.09
2023-04-25T06:07:15.358Z,98309.50
2023-04-25T06:08:48.843Z,98316.13
2023-04-25T06:10:22.275Z,98324.97
2023-04-25T06:11:55.462Z,98314.47
2023-04-25T06:13:29.032Z,98307.59
2023-04-25T06:15:08.188Z,98313.47
2023-04-25T06:16:46.748Z,98299.00
2023-04-25T06:18:20.483Z,98290.06
2023-04-25T06:19:53.748Z,98285.00
2023-04-25T06:21:28.578Z,98286.81
2023-04-25T06:23:03.374Z,98290.19
2023-04-25T06:25:01.292Z,98279.44
2023-04-25T06:26:35.392Z,98283.09
2023-04-25T06:28:09.951Z,98277.91
2023-04-25T06:29:44.405Z,98283.03
2023-04-25T06:31:17.717Z,98284.00
2023-04-25T06:32:53.124Z,98281.22
2023-04-25T06:34:26.514Z,98276.00
2023-04-25T06:35:59.865Z,98279.47
2023-04-25T06:37:34.451Z,98272.25
2023-04-25T06:39:10.289Z,98280.03
2023-04-25T06:40:43.423Z,98284.97
2023-04-25T06:42:17.207Z,98285.84
2023-04-25T06:43:59.343Z,98274.06
2023-04-25T06:45:48.522Z,98287.91
2023-04-25T06:47:22.187Z,98276.25
2023-04-25T06:48:56.209Z,98278.41
2023-04-25T06:50:29.421Z,98281.06
2023-04-25T06:52:03.052Z,98277.59
2023-04-25T06:53:36.219Z,98272.28
2023-04-25T06:55:13.621Z,98272.41
2023-04-25T06:57:05.741Z,98270.00
2023-04-25T06:58:40.462Z,98274.81
2023-04-25T07:00:21.778Z,98272.84
2023-04-25T07:01:55.120Z,98271.63
2023-04-25T07:03:32.645Z,98262.41
2023-04-25T07:05:10.919Z,98270.50
2023-04-25T07:06:44.277Z,98266.56
2023-04-25T07:08:18.562Z,98267.38
2023-04-25T07:09:52.015Z,98275.09
2023-04-25T07:11:26.985Z,98273.94
2023-04-25T07:13:00.159Z,98283.00
2023-04-25T07:14:33.702Z,98272.47
2023-04-25T07:16:08.600Z,98259.44
2023-04-25T07:17:43.106Z,98264.00
2023-04-25T07:19:16.269Z,98263.91
2023-04-25T07:20:49.452Z,98263.31
2023-04-25T07:22:23.024Z,98266.09
2023-04-25T07:23:56.692Z,98254.16
2023-04-25T07:25:36.179Z,98260.03
2023-04-25T07:27:11.322Z,98251.94
2023-04-25T07:28:59.465Z,98249.09
2023-04-25T07:30:32.838Z,98257.34
2023-04-25T07:32:11.462Z,98248.84
2023-04-25T07:33:44.613Z,98255.31
2023-04-25T07:35:19.058Z,98245.03
2023-04-25T07:36:52.591Z,98241.94
2023-04-25T07:38:26.655Z,98237.56
2023-04-25T07:40:01.085Z,98233.31
2023-04-25T07:41:36.237Z,98237.84
2023-04-25T07:43:13.397Z,98230.34
2023-04-25T07:44:54.627Z,98228.41
2023-04-25T07:46:28.996Z,98230.59
2023-04-25T07:48:02.843Z,98230.38
2023-04-25T07:49:38.777Z,98237.56
2023-04-25T07:53:04.369Z,98221.06
2023-04-25T07:54:57.093Z,98225.16
2023-04-25T07:56:49.573Z,98220.84
2023-04-25T07:58:28.037Z,98217.94
2023-04-25T08:00:10.359Z,98214.53
2023-04-25T08:01:51.460Z,98204.69
2023-04-25T08:03:26.937Z,98204.63
2023-04-25T08:05:01.991Z,98215.97
2023-04-25T08:06:36.333Z,98201.78
2023-04-25T08:08:21.140Z,98196.63
2023-04-25T08:09:54.830Z,98206.31
2023-04-25T08:11:36.671Z,98210.00
2023-04-25T08:13:10.064Z,98202.00
2023-04-25T08:14:45.569Z,98196.13
2023-04-25T08:16:19.238Z,98197.41
2023-04-25T08:17:54.145Z,98205.44
2023-04-25T08:19:27.658Z,98203.78
2023-04-25T08:21:01.561Z,98193.63
2023-04-25T08:22:35.091Z,98193.25
2023-04-25T08:24:27.585Z,98189.19
2023-04-25T08:26:01.305Z,98181.56
2023-04-25T08:27:35.873Z,98181.97
2023-04-25T08:29:09.177Z,98194.69
2023-04-25T08:30:47.770Z,98197.44
2023-04-25T08:32:23.114Z,98186.06
2023-04-25T08:34:16.539Z,98196.19
2023-04-25T08:35:52.682Z,98208.09
2023-04-25T08:37:26.793Z,98228.56
2023-04-25T08:39:08.215Z,98242.41
2023-04-25T08:40:52.654Z,98273.66
2023-04-25T08:42:30.058Z,98291.97
2023-04-25T08:44:05.862Z,98292.56
2023-04-25T08:45:41.617Z,98303.88
2023-04-25T08:47:17.434Z,98308.91
2023-04-25T08:49:03.845Z,98295.03
2023-04-25T08:50:37.262Z,98281.50
2023-04-25T08:52:12.345Z,98274.50
2023-04-25T08:53:53.578Z,98261.13
2023-04-25T08:55:28.802Z,98256.38
2023-04-25T08:57:06.358Z,98257.44
2023-04-25T08:58:40.554Z,98250.06
2023-04-25T09:00:15.261Z,98256.16
2023-04-25T09:01:51.725Z,98239.22
2023-04-25T09:03:30.146Z,98245.63
2023-04-25T09:05:05.259Z,98251.78
2023-04-25T09:06:38.402Z,98256.88
2023-04-25T09:08:12.099Z,98256.84
2023-04-25T09:09:45.278Z,98262.56
2023-04-25T09:11:20.483Z,98260.31
2023-04-25T09:13:06.147Z,98272.34
2023-04-25T09:15:05.430Z,98269.50
2023-04-25T09:17:16.631Z,98262.47
2023-04-25T09:18:54.981Z,98270.91
2023-04-25T09:20:29.413Z,98281.31
2023-04-25T09:22:06.235Z,98283.00
2023-04-25T09:23:43.970Z,98278.59
2023-04-25T09:25:17.603Z,98276.94
2023-04-25T09:26:51.863Z,98263.31
2023-04-25T09:28:30.080Z,98254.84
2023-04-25T09:30:06.344Z,98251.91
2023-04-25T09:32:18.703Z,98256.22
2023-04-25T09:33:54.599Z,98254.22
2023-04-25T09:35:30.169Z,98256.66
2023-04-25T09:37:06.859Z,98260.13
2023-04-25T09:39:02.890Z,98259.06
2023-04-25T09:40:42.802Z,98248.47
2023-04-25T09:42:26.009Z,98249.91
2023-04-25T09:44:00.221Z,98244.78
2023-04-25T09:45:47.028Z,98247.50
2023-04-25T09:47:24.321Z,98250.47
2023-04-25T09:48:57.614Z,98246.38
2023-04-25T09:50:42.508Z,98245.66
2023-04-25T09:52:23.266Z,98248.16
2023-04-25T09:54:16.137Z,98253.34
2023-04-25T09:55:54.689Z,98248.53
2023-04-25T09:57:28.115Z,98255.06
2023-04-25T09:59:05.321Z,98259.72
2023-04-25T10:00:41.258Z,98253.66
2023-04-25T10:02:29.637Z,98253.44
2023-04-25T10:04:13.231Z,98248.34
2023-04-25T10:05:55.256Z,98241.66
2023-04-25T10:07:33.282Z,98248.22
2023-04-25T10:09:09.599Z,98247.13
2023-04-25T10:10:44.103Z,98240.56
2023-04-25T10:12:18.531Z,98236.63
2023-04-25T10:13:53.174Z,98232.69
2023-04-25T10:15:27.194Z,98226.50
2023-04-25T10:17:00.858Z,98225.19
2023-04-25T10:18:34.987Z,98222.28
2023-04-25T10:20:12.263Z,98225.13
2023-04-25T10:21:53.412Z,98219.22
2023-04-25T10:23:26.982Z,98216.69
2023-04-25T10:25:01.115Z,98211.91
2023-04-25T10:26:34.946Z,98212.22
2023-04-25T10:28:08.430Z,98206.78
2023-04-25T10:29:45.256Z,98198.75
2023-04-25T10:31:18.678Z,98199.63
2023-04-25T10:32:52.927Z,98196.03
2023-04-25T10:34:40.629Z,98188.06
2023-04-25T10:36:15.958Z,98181.44
2023-04-25T10:38:06.430Z,98179.63
2023-04-25T10:39:42.743Z,98183.03
2023-04-25T10:41:16.378Z,98174.16
2023-04-25T10:42:49.588Z,98175.44
2023-04-25T10:44:23.359Z,98167.09
2023-04-25T10:45:56.521Z,98166.25
2023-04-25T10:47:37.436Z,98160.88
2023-04-25T10:49:12.082Z,98159.91
2023-04-25T10:50:46.744Z,98164.00
2023-04-25T10:52:26.540Z,98163.69
2023-04-25T10:54:02.642Z,98158.91
2023-04-25T10:55:53.826Z,98164.53
2023-04-25T10:57:41.935Z,98166.94
2023-04-25T10:59:16.532Z,98168.91
2023-04-25T11:02:29.446Z,98176.34
2023-04-25T11:04:03.647Z,98174.03
2023-04-25T11:05:50.996Z,98167.81
2023-04-25T11:07:36.660Z,98182.28
2023-04-25T11:09:15.117Z,98163.41
2023-04-25T11:10:50.311Z,98161.84
2023-04-25T11:12:27.062Z,98149.84
2023-04-25T11:14:00.843Z,98150.13
2023-04-25T11:15:33.992Z,98140.81
2023-04-25T11:17:07.875Z,98134.03
2023-04-25T11:18:43.464Z,98125.84
2023-04-25T11:20:17.038Z,98126.41
2023-04-25T11:21:50.272Z,98133.47
2023-04-25T11:23:23.609Z,98127.25
2023-04-25T11:24:58.113Z,98125.00
2023-04-25T11:26:32.874Z,98123.03
2023-04-25T11:28:06.477Z,98112.56
2023-04-25T11:29:39.758Z,98117.63
2023-04-25T11:31:12.920Z,98112.00
2023-04-25T11:32:46.787Z,98112.28
2023-04-25T11:34:20.172Z,98115.97
2023-04-25T11:35:55.851Z,98109.22
2023-04-25T11:37:29.013Z,98105.53
2023-04-25T11:39:03.037Z,98105.22
2023-04-25T11:40:37.955Z,98107.47
2023-04-25T11:42:13.799Z,98108.34
2023-04-25T11:43:47.293Z,98102.41
2023-04-25T11:45:21.216Z,98097.31
2023-04-25T11:46:54.351Z,98108.63
2023-04-25T11:48:27.631Z,98121.44
2023-04-25T11:50:01.672Z,98125.75
2023-04-25T11:51:41.303Z,98138.13
2023-04-25T11:53:14.554Z,98138.75
2023-04-25T11:54:47.821Z,98126.16
2023-04-25T11:56:22.759Z,98131.78
2023-04-25T11:57:56.293Z,98142.03
2023-04-25T11:59:29.426Z,98142.97
2023-04-25T12:01:04.138Z,98157.88
2023-04-25T12:02:37.847Z,98172.38
2023-04-25T12:04:15.964Z,98171.34
2023-04-25T12:05:49.355Z,98176.63
2023-04-25T12:07:22.802Z,98192.22
2023-04-25T12:09:04.557Z,98196.84
2023-04-25T12:10:40.185Z,98186.66
2023-04-25T12:12:14.677Z,98185.47
2023-04-25T12:13:47.969Z,98183.22
2023-04-25T12:15:26.204Z,98184.66
2023-04-25T12:17:01.435Z,98188.41
2023-04-25T12:18:38.229Z,98176.06
2023-04-25T12:20:14.479Z,98173.75
2023-04-25T12:21:57.274Z,98164.16
2023-04-25T12:23:32.229Z,98160.59
2023-04-25T12:25:06.174Z,98150.38
2023-04-25T12:26:53.493Z,98154.44
2023-04-25T12:28:29.099Z,98137.41
2023-04-25T12:30:03.002Z,98129.56
2023-04-25T12:31:36.245Z,98134.75
2023-04-25T12:33:09.583Z,98129.75
2023-04-25T12:34:42.669Z,98129.50
2023-04-25T12:36:18.270Z,98131.97
2023-04-25T12:37:51.343Z,98123.53
2023-04-25T12:39:27.267Z,98113.16
2023-04-25T12:41:00.913Z,98113.63
2023-04-25T12:42:34.593Z,98122.09
2023-04-25T12:44:09.083Z,98127.53
2023-04-25T12:45:42.808Z,98126.50
2023-04-25T12:47:16.371Z,98123.00
2023-04-25T12:48:50.355Z,98133.72
2023-04-25T12:50:25.989Z,98139.84
2023-04-25T12:51:59.499Z,98137.53
2023-04-25T12:53:33.898Z,98148.06
2023-04-25T12:55:09.352Z,98139.66
2023-04-25T12:56:43.266Z,98145.28
2023-04-25T12:58:16.666Z,98151.94
2023-04-25T12:59:51.190Z,98158.34
2023-04-25T13:01:25.401Z,98152.28
2023-04-25T13:02:58.831Z,98144.28
2023-04-25T13:04:32.470Z,98144.19
2023-04-25T13:06:06.159Z,98142.44
2023-04-25T13:07:39.746Z,98145.09
2023-04-25T13:09:13.887Z,98147.06
2023-04-25T13:10:47.310Z,98152.38
2023-04-25T13:12:20.402Z,98147.72
2023-04-25T13:13:54.218Z,98150.91
2023-04-25T13:15:29.257Z,98152.00
2023-04-25T13:17:02.546Z,98153.81
2023-04-25T13:18:36.063Z,98157.22
2023-04-25T13:20:11.273Z,98143.38
2023-04-25T13:21:44.346Z,98145.34
2023-04-25T13:23:17.704Z,98141.06
2023-04-25T13:24:50.806Z,98148.97
2023-04-25T13:26:24.473Z,98148.97
2023-04-25T13:27:57.621Z,98146.66
2023-04-25T13:29:30.803Z,98152.59
2023-04-25T13:31:05.321Z,98158.69
2023-04-25T13:32:39.646Z,98155.03
2023-04-25T13:34:13.660Z,98170.81
2023-04-25T13:35:47.942Z,98162.06
2023-04-25T13:37:21.128Z,98161.59
2023-04-25T13:38:54.798Z,98153.91
2023-04-25T13:40:28.921Z,98147.72
2023-04-25T13:42:02.892Z,98156.13
2023-04-25T13:43:36.076Z,98186.00
2023-04-25T13:45:11.577Z,98254.91
2023-04-25T13:46:47.810Z,98245.63
2023-04-25T13:48:21.937Z,98265.22
2023-04-25T13:49:55.547Z,98280.91
2023-04-25T13:51:30.989Z,98282.88
2023-04-25T13:53:05.825Z,98298.69
2023-04-25T13:54:39.072Z,98296.72
2023-04-25T13:56:13.159Z,98311.00
2023-04-25T13:57:47.428Z,98307.47
2023-04-25T13:59:20.840Z,98316.69
2023-04-25T14:00:54.844Z,98309.72
2023-04-25T14:02:29.505Z,98303.09
2023-04-25T14:04:03.214Z,98305.53
2023-04-25T14:05:40.507Z,98284.31
2023-04-25T14:07:13.818Z,98282.69
2023-04-25T14:08:47.125Z,98276.34
2023-04-25T14:10:20.880Z,98275.50
2023-04-25T14:11:54.423Z,98280.44
2023-04-25T14:13:27.743Z,98286.22
2023-04-25T14:15:01.184Z,98293.53
2023-04-25T14:16:34.603Z,98293.66
2023-04-25T14:18:09.402Z,98297.81
2023-04-25T14:19:44.428Z,98305.00
2023-04-25T14:21:17.580Z,98305.09
2023-04-25T14:22:51.122Z,98293.31
2023-04-25T14:24:24.301Z,98303.47
2023-04-25T14:25:57.675Z,98306.66
2023-04-25T14:27:31.079Z,98291.25
2023-04-25T14:29:04.835Z,98305.66
2023-04-25T14:30:38.057Z,98301.38
2023-04-25T14:32:11.992Z,98301.00
2023-04-25T14:33:46.729Z,98296.78
2023-04-25T14:35:21.242Z,98282.53
2023-04-25T14:36:54.626Z,98276.41
2023-04-25T14:38:28.104Z,98264.97
2023-04-25T14:40:01.304Z,98265.69
2023-04-25T14:41:35.266Z,98273.47
2023-04-25T14:43:08.408Z,98269.66
2023-04-25T14:44:41.721Z,98277.53
2023-04-25T14:46:14.938Z,98282.00
2023-04-25T14:47:48.539Z,98273.91
2023-04-25T14:49:23.367Z,98277.19
2023-04-25T14:50:57.515Z,98266.69
2023-04-25T14:52:30.815Z,98273.91
2023-04-25T14:54:04.567Z,98262.84
2023-04-25T14:55:37.776Z,98277.13
2023-04-25T14:57:11.055Z,98276.91
2023-04-25T14:58:44.187Z,98278.94
2023-04-25T15:00:18.332Z,98269.00
2023-04-25T15:01:52.056Z,98258.38
2023-04-25T15:03:25.602Z,98267.13
2023-04-25T15:05:01.287Z,98265.63
2023-04-25T15:06:35.063Z,98248.78
2023-04-25T15:08:08.249Z,98252.84
2023-04-25T15:09:41.534Z,98251.44
2023-04-25T15:11:14.760Z,98242.84
2023-04-25T15:12:48.567Z,98248.78
2023-04-25T15:14:21.839Z,98250.28
2023-04-25T15:15:55.307Z,98255.59
2023-04-25T15:17:32.037Z,98260.09
2023-04-25T15:19:06.652Z,98253.50
2023-04-25T15:20:41.312Z,98248.91
2023-04-25T15:22:14.564Z,98258.38
2023-04-25T15:23:47.793Z,98237.31
2023-04-25T15:25:21.412Z,98248.28
2023-04-25T15:26:54.538Z,98241.56
2023-04-25T15:28:27.933Z,98238.34
2023-04-25T15:30:01.051Z,98237.06
2023-04-25T15:31:34.507Z,98229.59
2023-04-25T15:33:07.752Z,98229.16
2023-04-25T15:34:41.013Z,98241.06
2023-04-25T15:36:17.442Z,98231.06
2023-04-25T15:37:51.917Z,98228.25
2023-04-25T15:39:25.114Z,98220.63
2023-04-25T15:40:58.347Z,98225.94
2023-04-25T15:42:31.926Z,98218.50
2023-04-25T15:44:05.609Z,98220.66
2023-04-25T15:45:38.750Z,98233.84
2023-04-25T15:47:12.118Z,98227.38
2023-04-25T15:48:45.435Z,98222.16
2023-04-25T15:50:18.931Z,98231.94
2023-04-25T15:51:53.523Z,98220.03
2023-04-25T15:53:26.813Z,98218.78
2023-04-25T15:55:00.312Z,98215.56
2023-04-25T15:56:34.453Z,98212.41
2023-04-25T15:58:08.555Z,98214.97
2023-04-25T15:59:42.613Z,98211.22
2023-04-25T16:01:15.868Z,98205.19
2023-04-25T16:02:50.370Z,98210.72
2023-04-25T16:04:25.260Z,98199.63
2023-04-25T16:05:58.975Z,98197.72
2023-04-25T16:07:33.547Z,98187.41
2023-04-25T16:09:08.761Z,98196.75
2023-04-25T16:10:42.176Z,98190.59
2023-04-25T16:12:15.420Z,98196.44
2023-04-25T16:13:51.332Z,98193.69
2023-04-25T16:15:25.435Z,98191.97
2023-04-25T16:17:00.568Z,98199.00
2023-04-25T16:18:33.832Z,98188.16
2023-04-25T16:20:10.446Z,98188.16
2023-04-25T16:21:44.807Z,98191.75
2023-04-25T16:23:19.720Z,98190.91
2023-04-25T16:24:53.551Z,98188.56
2023-04-25T16:26:26.746Z,98183.25
2023-04-25T16:28:00.057Z,98196.44
2023-04-25T16:29:33.107Z,98190.25
2023-04-25T16:31:07.089Z,98183.13
2023-04-25T16:32:44.734Z,98183.25
2023-04-25T16:34:19.071Z,98180.78
2023-04-25T16:35:52.908Z,98184.09
2023-04-25T16:37:26.385Z,98190.50
2023-04-25T16:39:01.396Z,98183.91
2023-04-25T16:40:35.128Z,98191.53
2023-04-25T16:42:08.319Z,98187.41
2023-04-25T16:43:41.845Z,98185.69
2023-04-25T16:45:17.843Z,98198.03
2023-04-25T16:46:51.266Z,98197.94
2023-04-25T16:48:24.638Z,98197.09
2023-04-25T16:49:57.875Z,98193.88
2023-04-25T16:51:32.607Z,98193.47
2023-04-25T16:53:05.826Z,98197.31
2023-04-25T16:54:40.566Z,98200.06
2023-04-25T16:56:15.538Z,98193.25
2023-04-25T16:57:48.845Z,98191.63
2023-04-25T16:59:22.034Z,98194.50
2023-04-25T17:00:55.858Z,98201.81
2023-04-25T17:02:29.340Z,98203.75
2023-04-25T17:04:03.097Z,98205.63
2023-04-25T17:05:37.290Z,98209.25
2023-04-25T17:07:10.946Z,98220.09
2023-04-25T17:08:44.191Z,98199.47
2023-04-25T17:10:19.215Z,98211.06
2023-04-25T17:11:52.772Z,98205.38
2023-04-25T17:13:30.758Z,98203.16
2023-04-25T17:15:04.702Z,98210.34
2023-04-25T17:16:39.383Z,98214.19
2023-04-25T17:18:12.718Z,98224.16
2023-04-25T17:19:46.587Z,98225.22
2023-04-25T17:21:20.052Z,98236.06
2023-04-25T17:22:53.295Z,98225.81
2023-04-25T17:24:26.647Z,98234.94
2023-04-25T17:26:01.418Z,98233.63
2023-04-25T17:27:35.225Z,98230.34
2023-04-25T17:29:08.572Z,98246.38
2023-04-25T17:30:42.624Z,98246.47
2023-04-25T17:32:17.378Z,98245.06
2023-04-25T17:33:51.036Z,98249.78
2023-04-25T17:35:25.034Z,98256.06
2023-04-25T17:36:58.338Z,98263.84
2023-04-25T17:38:31.679Z,98260.22
2023-04-25T17:40:07.159Z,98265.34
2023-04-25T17:41:42.014Z,98273.13
2023-04-25T17:43:15.240Z,98271.19
2023-04-25T17:44:48.418Z,98275.50
2023-04-25T17:46:21.670Z,98275.25
2023-04-25T17:47:55.122Z,98278.25
2023-04-25T17:49:28.378Z,98278.44
2023-04-25T17:51:01.533Z,98286.94
2023-04-25T17:52:34.836Z,98285.25
2023-04-25T17:54:08.712Z,98279.94
2023-04-25T17:55:43.775Z,98286.94
2023-04-25T17:57:19.006Z,98282.59
2023-04-25T17:58:53.094Z,98288.88
2023-04-25T18:00:26.960Z,98287.13
2023-04-25T18:02:01.087Z,98294.19
2023-04-25T18:03:34.476Z,98297.75
2023-04-25T18:05:10.047Z,98295.00
2023-04-25T18:06:43.784Z,98292.06
2023-04-25T18:08:16.976Z,98297.38
2023-04-25T18:09:50.052Z,98295.50
2023-04-25T18:11:23.293Z,98292.06
2023-04-25T18:12:58.028Z,98292.25
2023-04-25T18:14:34.154Z,98287.34
2023-04-25T18:16:08.089Z,98292.66
2023-04-25T18:17:41.394Z,98296.47
2023-04-25T18:19:18.770Z,98291.72
2023-04-25T18:20:52.165Z,98300.56
2023-04-25T18:22:25.321Z,98298.94
2023-04-25T18:23:58.835Z,98305.97
2023-04-25T18:25:32.275Z,98318.09
2023-04-25T18:27:06.339Z,98312.78
2023-04-25T18:28:40.853Z,98313.91
2023-04-25T18:30:14.703Z,98306.34
2023-04-25T18:31:49.702Z,98308.63
2023-04-25T18:33:23.429Z,98314.03
2023-04-25T18:34:56.805Z,98300.19
2023-04-25T18:36:30.128Z,98300.84
2023-04-25T18:38:04.272Z,98306.50
2023-04-25T18:39:37.705Z,98309.94
2023-04-25T18:41:33.715Z,98310.13
2023-04-25T18:43:09.907Z,98314.69
2023-04-25T18:44:45.747Z,98316.03
2023-04-25T18:46:22.506Z,98317.34
2023-04-25T18:47:56.007Z,98327.34
2023-04-25T18:49:28.577Z,98330.38
2023-04-25T18:51:01.921Z,98333.22
2023-04-25T18:52:35.138Z,98335.31
2023-04-25T18:54:10.819Z,98339.75
2023-04-25T18:55:44.726Z,98344.41